13:54
Airports
History
Links
Donate
Help keep this website running!
PayPal
Bitcoin
This page is community maintained. The information is intended for PC simulator navigation or reference.
Always use approved charts for navigation.
N04
Griswold
Griswold (N04)
Madison, Connecticut, United States (6443)
(U)
Lat/Lng:41° 16' 16.25" N / 72° 32' 59" W
41.27118 / -72.549721
Elevation:15'ft / 5mMSL
ID / ICAO:N04
Runways:1
Longest:06-24
Asphalt 563m / 1,848ft
Nearby Weather12:53 GMT 2017-11-18
Nearby weather at KHVN, Tweed-new Haven located 17.5 nautical miles from N04
Altimeter: 29.98
Visibility: 10.0 statute miles
Wind: 0 knots (from 000°)
Temp: -2°c / 28°f
Humidity: 74.0%

METAR: KHVN 181253Z 00000KT 10SM OVC250 M02/M06 A2998 RMK AO2 SLP153 T10171056

(Powered by phpweather)
Nearby VORs <50NM
Nearby NDBs
Runway 06 / 24
Dimensions:563.3 x 15.2m 1848' x 50'ft
Surface:Asphalt
Runway 06 [A]Runway 24 [B]
Heading:044°TH 224°TH
Lat:
Lng:
41° 16' 9.73"N
72° 33' 7.61"W
41° 16' 22.76"N
72° 32' 50.38"W
User Notes and Comments
41° 16' 16.25" N / 72° 32' 59" W
Distance To
Airport ID:
Nearby Airports
(U) Chester 8.1 NM
KSNC NNE 16°
(U) Goodspeed 13.0 NM
42B NNE 22°
(R) Maplewood Farm 15.9 NM
CT39 NNW 328°
(R) Rose Field 16.2 NM
2NK3 ESE 119°
(R) Devils Hopyard Field 16.2 NM
CT11 NE 42°
(C) Tweed-new Haven 17.5 NM
KHVN ( WX ) W 268°
(R) Westmoreland 18.0 NM
49NY SE 139°
VFR Chart
Flight Planning at SkyVector.com